PST,Max TemperatureF,Mean TemperatureF,Min TemperatureF,Max Dew PointF,MeanDew PointF,Min DewpointF,Max Humidity, Mean Humidity, Min Humidity, Max Sea Level PressureIn, Mean Sea Level PressureIn, Min Sea Level PressureIn, Max VisibilityMiles, Mean VisibilityMiles, Min VisibilityMiles, Max Wind SpeedMPH, Mean Wind SpeedMPH, Max Gust SpeedMPH,PrecipitationIn, CloudCover, Events, WindDirDegrees
2013-2-1,51,48,44,45,43,39,93,83,71,30.41,30.38,30.34,10,9,5,7,2,,0.00,6,,354
2013-2-2,44,42,39,40,38,37,93,86,79,30.39,30.32,30.27,10,5,0,9,4,,0.00,8,Fog,40
2013-2-3,50,44,39,43,39,36,93,84,71,30.30,30.27,30.21,10,8,1,10,7,,0.08,8,Rain,147
2013-2-4,52,48,44,42,41,39,87,76,61,30.20,30.08,29.91,10,10,10,9,6,,0.00,7,,138
2013-2-5,52,48,44,43,40,38,87,76,63,29.95,29.88,29.85,10,10,8,17,9,33,0.18,7,Rain,168
2013-2-6,52,48,45,42,39,37,82,74,59,30.06,29.96,29.80,10,10,10,14,9,20,0.08,8,Rain,152
2013-2-7,50,46,39,38,35,30,82,66,46,30.19,30.02,29.83,10,10,10,20,7,28,0.09,4,Rain,192
2013-2-8,46,42,37,36,35,33,89,73,61,30.31,30.28,30.21,10,10,9,6,1,,0.00,7,,58
2013-2-9,46,44,42,40,37,34,85,77,61,30.34,30.29,30.27,10,9,3,6,1,,0.01,8,Rain,126
2013-2-10,46,42,37,40,36,34,93,79,61,30.38,30.36,30.33,10,7,0,6,2,,0.00,6,Fog,329
2013-2-11,48,44,41,40,38,36,89,76,61,30.37,30.35,30.33,10,9,5,9,3,,0.01,8,Rain,154
2013-2-12,52,49,46,45,43,42,93,82,71,30.40,30.35,30.29,10,8,2,17,8,26,0.00,7,,167
2013-2-13,50,48,46,43,40,37,86,74,66,30.51,30.43,30.34,10,10,10,10,5,,0.00,8,,188
2013-2-14,51,48,44,44,41,39,86,79,71,30.56,30.54,30.50,10,10,5,9,5,,0.03,8,Rain,152
2013-2-15,55,48,41,44,41,37,93,81,59,30.55,30.40,30.19,10,8,1,6,2,,0.00,4,,345
2013-2-16,54,46,39,42,39,35,89,74,51,30.21,30.16,30.12,10,10,8,14,7,25,0.00,6,Rain,156
2013-2-17,46,44,42,38,35,31,81,70,54,30.25,30.20,30.12,10,10,10,10,7,,0.00,8,,167
2013-2-18,46,44,41,38,35,33,82,73,59,30.10,29.93,29.77,10,10,10,8,3,,0.00,7,Rain,152
2013-2-19,51,45,39,36,34,31,81,68,48,30.02,29.85,29.74,10,10,10,12,2,,0.00,3,,342
2013-2-20,46,41,36,38,35,30,86,77,63,30.05,30.03,30.00,10,10,7,12,5,18,0.07,8,Rain,150
2013-2-21,46,44,41,38,37,36,89,77,71,30.08,30.05,30.02,10,10,8,17,8,26,0.01,8,Rain,173
2013-2-22,48,44,41,41,37,32,87,76,65,30.06,29.87,29.72,10,9,5,23,13,34,0.34,7,Rain,177
2013-2-23,51,45,39,36,34,32,81,69,52,30.38,30.16,29.93,10,10,10,12,8,18,0.00,7,,138
2013-2-24,48,45,42,36,34,31,76,63,50,30.38,30.25,29.96,10,10,9,21,10,31,0.02,8,Rain,164
2013-2-25,53,46,39,38,34,24,79,67,34,30.32,30.07,29.90,10,10,7,20,13,31,0.14,5,Rain,185
2013-2-26,48,44,39,36,32,29,79,62,46,30.36,30.29,30.20,10,10,9,13,8,,0.01,8,Rain,157
2013-2-27,50,46,41,43,40,37,89,79,63,30.31,30.28,30.22,10,9,4,10,4,,0.32,7,Rain,129
2013-2-28,54,49,44,50,46,41,93,87,82,30.32,30.25,30.20,10,9,5,14,4,,0.25,8,Rain,153